createdAt,value
2022-12-20T00:01:49.195Z,25.87
2022-12-20T00:04:52.215Z,26.50
2022-12-20T00:07:55.134Z,26.27
2022-12-20T00:11:00.713Z,25.83
2022-12-20T00:14:05.048Z,24.40
2022-12-20T00:17:07.934Z,28.00
2022-12-20T00:20:11.800Z,24.10
2022-12-20T00:23:14.754Z,24.87
2022-12-20T00:26:21.417Z,23.67
2022-12-20T00:29:25.735Z,26.60
2022-12-20T00:32:28.827Z,24.70
2022-12-20T00:35:31.756Z,25.27
2022-12-20T00:38:36.914Z,26.90
2022-12-20T00:41:39.894Z,27.30
2022-12-20T00:44:44.638Z,25.50
2022-12-20T00:47:47.649Z,27.03
2022-12-20T00:50:50.987Z,26.10
2022-12-20T00:53:54.277Z,27.43
2022-12-20T00:56:57.201Z,25.67
2022-12-20T01:00:01.492Z,22.30
2022-12-20T01:03:04.672Z,22.17
2022-12-20T01:06:08.342Z,24.37
2022-12-20T01:09:12.587Z,24.27
2022-12-20T01:12:15.617Z,26.00
2022-12-20T01:15:21.324Z,23.33
2022-12-20T01:18:24.285Z,24.03
2022-12-20T01:21:28.514Z,21.53
2022-12-20T01:24:31.452Z,21.67
2022-12-20T01:27:34.479Z,22.67
2022-12-20T01:30:43.316Z,19.83
2022-12-20T01:33:47.651Z,24.30
2022-12-20T01:36:51.245Z,22.47
2022-12-20T01:39:54.154Z,23.23
2022-12-20T01:42:57.099Z,20.90
2022-12-20T01:46:01.522Z,22.47
2022-12-20T01:49:10.690Z,21.53
2022-12-20T01:52:17.310Z,20.53
2022-12-20T01:55:23.992Z,19.13
2022-12-20T01:58:26.941Z,20.33
2022-12-20T02:01:31.475Z,19.23
2022-12-20T02:04:34.584Z,22.17
2022-12-20T02:07:39.395Z,23.50
2022-12-20T02:10:56.026Z,24.97
2022-12-20T02:14:11.021Z,22.50
2022-12-20T02:17:24.170Z,21.23
2022-12-20T02:20:54.208Z,21.67
2022-12-20T02:24:36.620Z,22.10
2022-12-20T02:27:49.928Z,23.03
2022-12-20T02:30:56.874Z,20.97
2022-12-20T02:34:01.408Z,19.87
2022-12-20T02:37:04.654Z,24.30
2022-12-20T02:40:09.786Z,22.50
2022-12-20T02:43:27.026Z,21.30
2022-12-20T02:46:33.457Z,22.53
2022-12-20T02:49:41.149Z,19.47
2022-12-20T02:52:44.628Z,21.47
2022-12-20T02:55:51.833Z,21.87
2022-12-20T02:58:59.795Z,19.00
2022-12-20T03:02:04.759Z,21.17
2022-12-20T03:05:08.394Z,18.33
2022-12-20T03:08:11.499Z,18.43
2022-12-20T03:11:14.591Z,21.60
2022-12-20T03:14:17.520Z,20.10
2022-12-20T03:17:21.849Z,20.87
2022-12-20T03:20:25.932Z,19.97
2022-12-20T03:23:28.904Z,19.53
2022-12-20T03:26:31.834Z,18.20
2022-12-20T03:29:34.800Z,17.43
2022-12-20T03:32:39.187Z,22.83
2022-12-20T03:35:42.193Z,17.80
2022-12-20T03:38:45.130Z,19.00
2022-12-20T03:41:48.014Z,19.43
2022-12-20T03:44:50.997Z,21.30
2022-12-20T03:47:55.263Z,16.47
2022-12-20T03:50:58.215Z,23.23
2022-12-20T03:54:01.212Z,17.73
2022-12-20T03:57:04.220Z,17.67
2022-12-20T04:00:08.675Z,17.47
2022-12-20T04:03:13.134Z,17.67
2022-12-20T04:06:16.609Z,18.77
2022-12-20T04:09:19.538Z,17.13
2022-12-20T04:12:22.479Z,20.47
2022-12-20T04:15:25.433Z,18.43
2022-12-20T04:18:30.152Z,20.93
2022-12-20T04:21:35.128Z,21.23
2022-12-20T04:24:38.285Z,18.13
2022-12-20T04:27:41.241Z,18.53
2022-12-20T04:30:44.181Z,16.63
2022-12-20T04:33:49.500Z,17.43
2022-12-20T04:36:52.440Z,17.10
2022-12-20T04:39:56.310Z,16.77
2022-12-20T04:42:59.291Z,18.07
2022-12-20T04:46:02.303Z,17.90
2022-12-20T04:49:06.747Z,17.37
2022-12-20T04:52:23.549Z,17.20
2022-12-20T04:55:26.469Z,19.63
2022-12-20T04:58:30.094Z,18.80
2022-12-20T05:01:33.048Z,17.57
2022-12-20T05:04:37.919Z,18.77
2022-12-20T05:07:41.079Z,23.50
2022-12-20T05:10:43.990Z,19.50
2022-12-20T05:13:46.941Z,18.37
2022-12-20T05:16:49.902Z,18.07
2022-12-20T05:19:54.169Z,19.30
2022-12-20T05:23:14.811Z,18.63
2022-12-20T05:26:20.520Z,19.83
2022-12-20T05:29:23.568Z,18.03
2022-12-20T05:32:26.508Z,19.17
2022-12-20T05:35:30.826Z,18.53
2022-12-20T05:38:33.817Z,18.40
2022-12-20T05:41:36.841Z,20.70
2022-12-20T05:44:39.733Z,18.27
2022-12-20T05:47:42.675Z,19.70
2022-12-20T05:50:47.500Z,16.83
2022-12-20T05:53:50.695Z,17.27
2022-12-20T05:56:53.637Z,20.63
2022-12-20T05:59:56.579Z,17.77
2022-12-20T06:02:59.667Z,18.53
2022-12-20T06:06:08.653Z,17.77
2022-12-20T06:09:14.957Z,19.17
2022-12-20T06:12:18.050Z,19.20
2022-12-20T06:15:21.043Z,19.17
2022-12-20T06:18:24.075Z,19.33
2022-12-20T06:21:28.496Z,19.80
2022-12-20T06:24:31.492Z,20.87
2022-12-20T06:27:34.521Z,17.93
2022-12-20T06:30:37.531Z,18.10
2022-12-20T06:33:40.553Z,18.63
2022-12-20T06:36:44.806Z,17.00
2022-12-20T06:39:47.834Z,18.13
2022-12-20T06:42:51.009Z,17.63
2022-12-20T06:45:54.055Z,18.83
2022-12-20T06:48:57.773Z,21.47
2022-12-20T06:52:02.143Z,18.80
2022-12-20T06:55:05.557Z,20.67
2022-12-20T06:58:08.538Z,22.13
2022-12-20T07:01:11.505Z,25.00
2022-12-20T07:04:14.506Z,22.03
2022-12-20T07:07:18.884Z,19.70
2022-12-20T07:10:21.859Z,22.23
2022-12-20T07:13:24.880Z,21.53
2022-12-20T07:16:29.209Z,21.87
2022-12-20T07:19:32.185Z,21.73
2022-12-20T07:22:36.907Z,24.20
2022-12-20T07:25:40.022Z,22.13
2022-12-20T07:28:43.976Z,23.63
2022-12-20T07:31:47.030Z,23.93
2022-12-20T07:34:49.977Z,25.60
2022-12-20T07:37:54.313Z,24.57
2022-12-20T07:40:57.541Z,24.93
2022-12-20T07:44:00.677Z,24.93
2022-12-20T07:47:03.762Z,24.47
2022-12-20T07:50:08.216Z,24.43
2022-12-20T07:53:13.007Z,29.50
2022-12-20T07:56:17.534Z,28.33
2022-12-20T07:59:23.703Z,28.83
2022-12-20T08:02:30.098Z,29.17
2022-12-20T08:05:34.795Z,26.90
2022-12-20T08:08:42.202Z,31.87
2022-12-20T08:11:48.649Z,31.07
2022-12-20T08:14:56.172Z,24.27
2022-12-20T08:17:59.220Z,25.63
2022-12-20T08:21:02.197Z,27.10
2022-12-20T08:24:08.198Z,27.73
2022-12-20T08:27:11.160Z,23.93
2022-12-20T08:30:14.984Z,27.77
2022-12-20T08:33:17.955Z,26.50
2022-12-20T08:36:20.893Z,31.90
2022-12-20T08:39:25.407Z,25.23
2022-12-20T08:42:28.617Z,33.63
2022-12-20T08:45:32.130Z,31.27
2022-12-20T08:48:35.513Z,27.13
2022-12-20T08:51:38.528Z,26.17
2022-12-20T08:54:42.823Z,25.47
2022-12-20T08:57:45.814Z,27.10
2022-12-20T09:00:48.780Z,29.73
2022-12-20T09:03:51.748Z,32.07
2022-12-20T09:06:54.845Z,27.37
2022-12-20T09:09:59.183Z,25.87
2022-12-20T09:13:02.163Z,26.73
2022-12-20T09:16:07.176Z,26.40
2022-12-20T09:19:13.961Z,27.27
2022-12-20T09:22:16.886Z,28.50
2022-12-20T09:25:21.233Z,24.40
2022-12-20T09:28:24.212Z,26.73
2022-12-20T09:31:28.032Z,22.17
2022-12-20T09:34:30.994Z,26.23
2022-12-20T09:37:34.466Z,31.17
2022-12-20T09:40:39.102Z,26.30
2022-12-20T09:43:42.171Z,29.60
2022-12-20T09:46:46.501Z,29.27
2022-12-20T09:49:52.652Z,24.17
2022-12-20T09:53:12.202Z,26.57
2022-12-20T09:56:27.739Z,24.13
2022-12-20T09:59:34.246Z,22.00
2022-12-20T10:03:00.079Z,22.17
2022-12-20T10:06:11.624Z,27.03
2022-12-20T10:09:29.619Z,23.20
2022-12-20T10:12:43.506Z,23.50
2022-12-20T10:15:52.323Z,21.40
2022-12-20T10:19:03.721Z,19.30
2022-12-20T10:22:12.758Z,21.33
2022-12-20T10:25:19.897Z,19.77
2022-12-20T10:28:28.548Z,22.57
2022-12-20T10:31:31.685Z,21.50
2022-12-20T10:34:38.278Z,19.93
2022-12-20T10:38:14.046Z,21.43
2022-12-20T10:41:22.191Z,23.87
2022-12-20T10:44:29.729Z,23.33
2022-12-20T10:47:41.704Z,19.43
2022-12-20T10:50:44.660Z,22.23
2022-12-20T10:53:59.971Z,23.20
2022-12-20T10:57:15.053Z,20.40
2022-12-20T11:00:30.849Z,19.67
2022-12-20T11:03:34.264Z,23.20
2022-12-20T11:06:46.170Z,20.30
2022-12-20T11:09:54.114Z,20.57
2022-12-20T11:12:58.732Z,19.07
2022-12-20T11:16:03.139Z,18.07
2022-12-20T11:19:31.367Z,18.03
2022-12-20T11:22:47.337Z,19.80
2022-12-20T11:26:11.029Z,17.97
2022-12-20T11:29:41.646Z,17.30
2022-12-20T11:33:11.705Z,17.57
2022-12-20T11:36:23.427Z,19.63
2022-12-20T11:39:35.842Z,18.43
2022-12-20T11:42:59.957Z,15.90
2022-12-20T11:46:19.828Z,16.67
2022-12-20T11:49:58.605Z,17.87
2022-12-20T11:53:06.544Z,17.73
2022-12-20T11:56:15.388Z,22.73
2022-12-20T11:59:26.593Z,18.40
2022-12-20T12:02:35.975Z,17.27
2022-12-20T12:05:45.388Z,18.90
2022-12-20T12:08:54.048Z,21.40
2022-12-20T12:12:08.544Z,22.23
2022-12-20T12:15:23.286Z,18.77
2022-12-20T12:18:31.360Z,18.67
2022-12-20T12:21:40.025Z,18.60
2022-12-20T12:24:47.762Z,20.27
2022-12-20T12:27:50.814Z,19.60
2022-12-20T12:30:58.870Z,16.80
2022-12-20T12:34:08.891Z,20.83
2022-12-20T12:37:38.278Z,18.17
2022-12-20T12:41:04.110Z,19.13
2022-12-20T12:44:31.597Z,17.47
2022-12-20T12:47:40.335Z,18.13
2022-12-20T12:50:46.843Z,17.07
2022-12-20T12:53:53.737Z,17.63
2022-12-20T12:57:03.142Z,16.77
2022-12-20T13:00:49.360Z,18.33
2022-12-20T13:04:11.516Z,19.10
2022-12-20T13:07:43.484Z,18.00
2022-12-20T13:11:02.683Z,20.53
2022-12-20T13:14:13.622Z,18.87
2022-12-20T13:17:48.839Z,18.27
2022-12-20T13:21:33.417Z,16.93
2022-12-20T13:24:56.275Z,18.67
2022-12-20T13:28:32.566Z,16.87
2022-12-20T13:31:37.535Z,17.47
2022-12-20T13:34:55.215Z,16.27
2022-12-20T13:38:01.967Z,18.70
2022-12-20T13:41:19.244Z,17.57
2022-12-20T13:44:45.047Z,18.20
2022-12-20T13:47:55.609Z,17.40
2022-12-20T13:50:59.445Z,18.77
2022-12-20T13:54:05.468Z,16.17
2022-12-20T13:57:09.010Z,18.13
2022-12-20T14:00:17.743Z,17.53
2022-12-20T14:03:28.232Z,17.73
2022-12-20T14:06:31.154Z,19.73
2022-12-20T14:09:36.542Z,19.67
2022-12-20T14:12:46.293Z,20.57
2022-12-20T14:15:49.777Z,19.20
2022-12-20T14:19:02.153Z,21.20
2022-12-20T14:22:05.156Z,16.97
2022-12-20T14:25:10.140Z,16.97
2022-12-20T14:28:27.991Z,19.00
2022-12-20T14:31:38.425Z,16.53
2022-12-20T14:34:44.569Z,19.47
2022-12-20T14:37:55.641Z,20.30
2022-12-20T14:40:58.878Z,19.97
2022-12-20T14:44:05.168Z,20.73
2022-12-20T14:47:17.450Z,21.70
2022-12-20T14:50:25.755Z,20.97
2022-12-20T14:53:28.985Z,22.60
2022-12-20T14:56:33.452Z,21.90
2022-12-20T14:59:36.421Z,23.00
2022-12-20T15:02:42.998Z,18.90
2022-12-20T15:05:52.377Z,18.63
2022-12-20T15:08:55.344Z,18.77
2022-12-20T15:11:59.177Z,22.20
2022-12-20T15:15:24.022Z,21.53
2022-12-20T15:18:25.598Z,24.97
2022-12-20T15:21:33.958Z,20.13
2022-12-20T15:24:36.935Z,23.43
2022-12-20T15:27:39.864Z,25.03
2022-12-20T15:30:43.023Z,24.27
2022-12-20T15:33:47.324Z,24.90
2022-12-20T15:36:51.726Z,22.13
2022-12-20T15:39:55.364Z,22.43
2022-12-20T15:42:58.465Z,23.53
2022-12-20T15:46:01.438Z,20.20
2022-12-20T15:49:04.695Z,24.73
2022-12-20T15:52:20.468Z,22.23
2022-12-20T15:55:23.382Z,21.43
2022-12-20T15:58:27.195Z,24.20
2022-12-20T16:01:40.486Z,20.50
2022-12-20T16:04:44.609Z,23.30
2022-12-20T16:07:48.888Z,22.07
2022-12-20T16:10:53.330Z,24.07
2022-12-20T16:13:57.407Z,23.07
2022-12-20T16:17:00.406Z,23.20
2022-12-20T16:20:03.428Z,25.13
2022-12-20T16:23:16.856Z,23.00
2022-12-20T16:26:21.357Z,25.53
2022-12-20T16:29:24.286Z,29.53
2022-12-20T16:32:27.275Z,26.60
2022-12-20T16:35:32.291Z,26.00
2022-12-20T16:38:36.616Z,27.83
2022-12-20T16:41:43.560Z,31.60
2022-12-20T16:44:48.037Z,31.93
2022-12-20T16:47:53.009Z,23.77
2022-12-20T16:50:55.966Z,27.33
2022-12-20T16:54:17.792Z,23.63
2022-12-20T16:57:22.245Z,25.67
2022-12-20T17:00:27.891Z,28.23
2022-12-20T17:03:31.032Z,28.80
2022-12-20T17:06:35.449Z,27.20
2022-12-20T17:09:39.788Z,27.13
2022-12-20T17:12:42.724Z,29.13
2022-12-20T17:15:47.544Z,28.87
2022-12-20T17:18:51.899Z,28.07
2022-12-20T17:25:22.772Z,32.40
2022-12-20T17:28:26.250Z,32.30
2022-12-20T17:31:31.423Z,35.13
2022-12-20T17:34:35.270Z,31.87
2022-12-20T17:37:38.208Z,29.43
2022-12-20T17:40:42.517Z,28.80
2022-12-20T17:43:45.553Z,31.87
2022-12-20T17:46:49.081Z,30.07
2022-12-20T17:49:52.034Z,27.67
2022-12-20T17:52:55.508Z,25.50
2022-12-20T17:55:59.864Z,26.40
2022-12-20T17:59:05.546Z,24.83
2022-12-20T18:02:19.696Z,26.33
2022-12-20T18:05:23.079Z,26.23
2022-12-20T18:08:26.145Z,24.30
2022-12-20T18:11:30.533Z,24.17
2022-12-20T18:14:33.486Z,23.27
2022-12-20T18:17:36.537Z,22.70
2022-12-20T18:20:39.451Z,22.80
2022-12-20T18:23:43.493Z,22.57
2022-12-20T18:26:48.011Z,21.40
2022-12-20T18:29:50.916Z,23.20
2022-12-20T18:32:53.889Z,23.07
2022-12-20T18:36:05.291Z,25.00
2022-12-20T18:39:09.472Z,26.67
2022-12-20T18:42:13.752Z,23.67
2022-12-20T18:45:17.130Z,24.60
2022-12-20T18:48:20.052Z,24.20
2022-12-20T18:51:24.697Z,22.30
2022-12-20T18:54:30.362Z,28.07
2022-12-20T18:57:34.646Z,23.27
2022-12-20T19:00:37.642Z,25.07
2022-12-20T19:03:40.661Z,27.03
2022-12-20T19:06:43.750Z,27.87
2022-12-20T19:09:46.660Z,24.23
2022-12-20T19:12:50.937Z,25.90
2022-12-20T19:16:02.204Z,29.00
2022-12-20T19:19:05.281Z,30.17
2022-12-20T19:22:08.214Z,29.60
2022-12-20T19:25:11.704Z,28.50
2022-12-20T19:28:15.982Z,28.80
2022-12-20T19:31:23.555Z,24.20
2022-12-20T19:34:26.721Z,25.23
2022-12-20T19:37:37.013Z,24.40
2022-12-20T19:40:41.304Z,25.80
2022-12-20T19:43:45.874Z,24.93
2022-12-20T19:46:48.825Z,29.67
2022-12-20T19:49:52.063Z,31.07
2022-12-20T19:52:55.114Z,29.97
2022-12-20T19:55:58.163Z,27.07
2022-12-20T19:59:03.384Z,30.43
2022-12-20T20:02:06.585Z,30.23
2022-12-20T20:05:14.878Z,26.93
2022-12-20T20:08:18.450Z,28.13
2022-12-20T20:11:21.619Z,27.67
2022-12-20T20:14:25.966Z,27.50
2022-12-20T20:17:29.253Z,26.90
2022-12-20T20:20:34.835Z,29.33
2022-12-20T20:23:38.377Z,29.27
2022-12-20T20:26:41.434Z,25.80
2022-12-20T20:29:45.684Z,26.73
2022-12-20T20:32:48.684Z,30.90
2022-12-20T20:35:55.640Z,31.17
2022-12-20T20:38:58.597Z,30.53
2022-12-20T20:42:01.602Z,24.47
2022-12-20T20:45:06.719Z,28.17
2022-12-20T20:48:09.866Z,28.63
2022-12-20T20:51:13.241Z,30.57
2022-12-20T20:54:16.410Z,31.63
2022-12-20T20:57:19.643Z,32.57
2022-12-20T21:00:25.196Z,26.57
2022-12-20T21:03:29.296Z,26.13
2022-12-20T21:06:39.074Z,24.93
2022-12-20T21:09:42.535Z,28.30
2022-12-20T21:12:45.640Z,27.30
2022-12-20T21:15:50.154Z,26.07
2022-12-20T21:18:53.765Z,29.63
2022-12-20T21:21:56.760Z,27.63
2022-12-20T21:25:00.375Z,29.23
2022-12-20T21:28:03.488Z,29.53
2022-12-20T21:31:10.797Z,27.53
2022-12-20T21:34:13.890Z,29.57
2022-12-20T21:37:16.942Z,29.50
2022-12-20T21:40:19.982Z,30.37
2022-12-20T21:43:22.870Z,30.07
2022-12-20T21:46:28.795Z,30.87
2022-12-20T21:49:31.776Z,30.87
2022-12-20T21:52:35.232Z,26.70
2022-12-20T21:55:38.264Z,26.33
2022-12-20T21:58:41.219Z,28.27
2022-12-20T22:01:47.101Z,29.73
2022-12-20T22:04:50.300Z,27.83
2022-12-20T22:07:53.270Z,27.37
2022-12-20T22:11:01.037Z,28.37
2022-12-20T22:14:04.129Z,27.17
2022-12-20T22:17:08.386Z,29.83
2022-12-20T22:20:11.746Z,29.23
2022-12-20T22:23:15.087Z,30.63
2022-12-20T22:26:20.715Z,28.93
2022-12-20T22:29:23.655Z,28.50
2022-12-20T22:32:28.067Z,31.47
2022-12-20T22:35:30.965Z,27.43
2022-12-20T22:38:34.133Z,30.43
2022-12-20T22:41:37.172Z,35.10
2022-12-20T22:44:40.154Z,29.07
2022-12-20T22:47:44.622Z,30.40
2022-12-20T22:50:47.567Z,31.27
2022-12-20T22:53:51.040Z,28.07
2022-12-20T22:56:54.356Z,28.97
2022-12-20T22:59:58.808Z,26.23
2022-12-20T23:03:03.270Z,30.90
2022-12-20T23:06:08.827Z,29.00
2022-12-20T23:09:11.753Z,32.33
2022-12-20T23:12:32.244Z,32.90
2022-12-20T23:15:43.994Z,28.43
2022-12-20T23:18:48.265Z,30.77
2022-12-20T23:22:08.641Z,27.33
2022-12-20T23:25:14.062Z,29.43
2022-12-20T23:28:17.082Z,31.30
2022-12-20T23:31:20.045Z,27.47
2022-12-20T23:34:24.623Z,32.27
2022-12-20T23:37:29.009Z,33.53
2022-12-20T23:40:31.969Z,28.17
2022-12-20T23:43:35.011Z,34.80
2022-12-20T23:46:38.257Z,32.73
2022-12-20T23:49:42.574Z,31.37
2022-12-20T23:52:45.528Z,31.87
2022-12-20T23:55:58.764Z,31.83
2022-12-20T23:59:02.342Z,30.87
